createdAt,value
2023-03-05T00:01:34.972Z,100.00
2023-03-05T00:04:05.247Z,100.00
2023-03-05T00:06:34.412Z,100.00
2023-03-05T00:09:02.373Z,100.00
2023-03-05T00:11:33.747Z,100.00
2023-03-05T00:14:06.200Z,100.00
2023-03-05T00:16:34.971Z,100.00
2023-03-05T00:19:03.773Z,100.00
2023-03-05T00:21:33.645Z,100.00
2023-03-05T00:24:03.271Z,100.00
2023-03-05T00:26:34.644Z,100.00
2023-03-05T00:29:03.217Z,100.00
2023-03-05T00:31:34.264Z,100.00
2023-03-05T00:34:04.304Z,100.00
2023-03-05T00:36:33.136Z,100.00
2023-03-05T00:39:01.226Z,99.92
2023-03-05T00:41:29.225Z,98.92
2023-03-05T00:43:58.900Z,98.01
2023-03-05T00:46:27.510Z,96.86
2023-03-05T00:48:56.213Z,96.15
2023-03-05T00:51:25.352Z,94.70
2023-03-05T00:53:53.541Z,94.53
2023-03-05T00:56:21.971Z,93.53
2023-03-05T00:58:50.883Z,93.14
2023-03-05T01:01:20.762Z,92.48
2023-03-05T01:03:48.911Z,92.29
2023-03-05T01:06:19.979Z,91.97
2023-03-05T01:08:48.036Z,91.78
2023-03-05T01:11:16.218Z,91.19
2023-03-05T01:13:44.414Z,90.81
2023-03-05T01:16:12.369Z,90.63
2023-03-05T01:18:42.656Z,90.49
2023-03-05T01:21:11.366Z,90.12
2023-03-05T01:23:39.402Z,89.83
2023-03-05T01:26:08.693Z,89.68
2023-03-05T01:28:38.350Z,89.99
2023-03-05T01:31:09.496Z,89.97
2023-03-05T01:33:38.081Z,89.65
2023-03-05T01:36:13.590Z,90.05
2023-03-05T01:38:42.138Z,90.18
2023-03-05T01:41:11.316Z,89.76
2023-03-05T01:43:40.000Z,89.76
2023-03-05T01:46:35.007Z,89.53
2023-03-05T01:49:19.486Z,89.31
2023-03-05T01:51:56.580Z,89.57
2023-03-05T01:54:31.637Z,89.53
2023-03-05T01:57:03.209Z,89.23
2023-03-05T01:59:32.296Z,88.85
2023-03-05T02:02:00.894Z,89.11
2023-03-05T02:04:35.963Z,88.46
2023-03-05T02:07:06.305Z,88.51
2023-03-05T02:09:34.352Z,88.54
2023-03-05T02:12:02.551Z,88.32
2023-03-05T02:14:30.582Z,88.57
2023-03-05T02:16:58.577Z,88.34
2023-03-05T02:19:27.032Z,88.14
2023-03-05T02:21:57.276Z,88.21
2023-03-05T02:24:37.617Z,88.57
2023-03-05T02:27:07.355Z,88.38
2023-03-05T02:29:40.012Z,88.41
2023-03-05T02:32:09.840Z,88.21
2023-03-05T02:34:38.971Z,88.79
2023-03-05T02:37:09.502Z,89.10
2023-03-05T02:39:39.687Z,89.05
2023-03-05T02:42:08.256Z,89.03
2023-03-05T02:44:36.368Z,89.19
2023-03-05T02:47:04.989Z,89.45
2023-03-05T02:49:33.053Z,89.72
2023-03-05T02:52:01.181Z,89.53
2023-03-05T02:54:30.668Z,89.62
2023-03-05T02:56:58.880Z,89.98
2023-03-05T02:59:28.053Z,89.93
2023-03-05T03:01:56.318Z,90.15
2023-03-05T03:04:24.460Z,90.07
2023-03-05T03:06:52.797Z,90.26
2023-03-05T03:09:20.834Z,90.31
2023-03-05T03:11:50.948Z,90.63
2023-03-05T03:14:19.238Z,90.45
2023-03-05T03:16:47.342Z,90.88
2023-03-05T03:19:16.505Z,91.08
2023-03-05T03:21:44.583Z,91.42
2023-03-05T03:24:12.667Z,91.32
2023-03-05T03:26:40.649Z,91.97
2023-03-05T03:29:10.457Z,92.09
2023-03-05T03:31:41.117Z,92.61
2023-03-05T03:34:09.477Z,92.74
2023-03-05T03:36:37.828Z,93.31
2023-03-05T03:39:06.749Z,93.60
2023-03-05T03:41:35.035Z,93.86
2023-03-05T03:44:05.066Z,94.11
2023-03-05T03:46:35.122Z,94.46
2023-03-05T03:49:03.530Z,94.82
2023-03-05T03:51:32.116Z,95.15
2023-03-05T03:54:00.499Z,95.44
2023-03-05T03:56:28.630Z,96.07
2023-03-05T03:58:57.013Z,96.41
2023-03-05T04:01:25.151Z,96.32
2023-03-05T04:03:54.548Z,97.71
2023-03-05T04:06:22.634Z,97.22
2023-03-05T04:08:50.822Z,97.71
2023-03-05T04:11:20.699Z,97.50
2023-03-05T04:13:49.671Z,98.19
2023-03-05T04:16:18.108Z,98.71
2023-03-05T04:18:46.731Z,98.89
2023-03-05T04:21:16.298Z,99.00
2023-03-05T04:23:46.349Z,98.76
2023-03-05T04:26:15.801Z,99.27
2023-03-05T04:28:43.811Z,99.29
2023-03-05T04:31:11.975Z,99.45
2023-03-05T04:33:40.203Z,99.58
2023-03-05T04:36:09.436Z,99.39
2023-03-05T04:38:39.134Z,99.67
2023-03-05T04:41:07.324Z,99.65
2023-03-05T04:43:35.390Z,100.00
2023-03-05T04:46:03.484Z,100.00
2023-03-05T04:48:31.635Z,100.00
2023-03-05T04:51:00.128Z,100.00
2023-03-05T04:53:28.324Z,100.00
2023-03-05T04:56:01.568Z,100.00
2023-03-05T04:58:30.100Z,100.00
2023-03-05T05:01:02.209Z,100.00
2023-03-05T05:03:30.435Z,100.00
2023-03-05T05:05:59.413Z,100.00
2023-03-05T05:08:28.604Z,100.00
2023-03-05T05:10:59.780Z,100.00
2023-03-05T05:13:28.065Z,100.00
2023-03-05T05:15:56.455Z,100.00
2023-03-05T05:18:25.633Z,100.00
2023-03-05T05:20:53.804Z,100.00
2023-03-05T05:23:21.634Z,100.00
2023-03-05T05:26:00.464Z,100.00
2023-03-05T05:28:28.731Z,100.00
2023-03-05T05:30:57.177Z,100.00
2023-03-05T05:33:25.518Z,100.00
2023-03-05T05:35:53.731Z,100.00
2023-03-05T05:38:21.692Z,100.00
2023-03-05T05:40:49.783Z,100.00
2023-03-05T05:43:19.318Z,100.00
2023-03-05T05:45:47.767Z,100.00
2023-03-05T05:48:15.805Z,100.00
2023-03-05T05:50:43.840Z,100.00
2023-03-05T05:53:11.752Z,100.00
2023-03-05T05:55:41.340Z,100.00
2023-03-05T05:58:09.411Z,100.00
2023-03-05T06:00:39.180Z,100.00
2023-03-05T06:03:07.858Z,100.00
2023-03-05T06:05:36.012Z,100.00
2023-03-05T06:08:03.969Z,100.00
2023-03-05T06:10:31.883Z,100.00
2023-03-05T06:12:59.859Z,100.00
2023-03-05T06:15:27.815Z,100.00
2023-03-05T06:17:57.190Z,100.00
2023-03-05T06:20:25.164Z,100.00
2023-03-05T06:22:53.334Z,100.00
2023-03-05T06:25:21.458Z,100.00
2023-03-05T06:27:49.580Z,100.00
2023-03-05T06:30:17.984Z,98.80
2023-03-05T06:32:46.046Z,98.78
2023-03-05T06:35:15.798Z,98.79
2023-03-05T06:37:44.797Z,98.39
2023-03-05T06:40:14.237Z,98.41
2023-03-05T06:42:42.219Z,98.25
2023-03-05T06:45:11.681Z,97.74
2023-03-05T06:47:40.146Z,97.84
2023-03-05T06:50:09.279Z,96.87
2023-03-05T06:52:40.882Z,97.14
2023-03-05T06:55:09.571Z,96.91
2023-03-05T06:57:38.111Z,96.35
2023-03-05T07:00:10.669Z,96.21
2023-03-05T07:02:38.784Z,96.08
2023-03-05T07:05:07.872Z,96.13
2023-03-05T07:07:36.195Z,95.60
2023-03-05T07:10:08.003Z,94.97
2023-03-05T07:12:36.330Z,95.12
2023-03-05T07:15:04.944Z,95.10
2023-03-05T07:17:33.020Z,94.91
2023-03-05T07:20:01.498Z,95.02
2023-03-05T07:22:29.729Z,94.50
2023-03-05T07:24:58.828Z,94.21
2023-03-05T07:27:28.137Z,93.82
2023-03-05T07:29:55.971Z,93.61
2023-03-05T07:32:23.829Z,93.81
2023-03-05T07:34:51.758Z,93.29
2023-03-05T07:37:19.561Z,92.07
2023-03-05T07:39:47.743Z,91.37
2023-03-05T07:42:15.723Z,90.26
2023-03-05T07:44:44.931Z,90.50
2023-03-05T07:47:13.241Z,90.25
2023-03-05T07:49:41.918Z,89.99
2023-03-05T07:52:10.496Z,89.97
2023-03-05T07:54:40.404Z,89.81
2023-03-05T07:57:09.651Z,90.22
2023-03-05T07:59:37.733Z,90.14
2023-03-05T08:02:07.386Z,89.88
2023-03-05T08:04:35.473Z,88.57
2023-03-05T08:07:03.647Z,87.52
2023-03-05T08:09:31.708Z,85.80
2023-03-05T08:12:00.228Z,84.67
2023-03-05T08:14:28.964Z,83.26
2023-03-05T08:16:57.007Z,83.28
2023-03-05T08:19:26.441Z,83.54
2023-03-05T08:21:55.639Z,84.07
2023-03-05T08:24:29.388Z,84.50
2023-03-05T08:26:57.987Z,84.19
2023-03-05T08:29:26.840Z,83.44
2023-03-05T08:31:55.841Z,81.52
2023-03-05T08:34:23.881Z,81.20
2023-03-05T08:36:53.742Z,80.13
2023-03-05T08:39:22.445Z,79.99
2023-03-05T08:41:50.949Z,79.63
2023-03-05T08:44:19.930Z,79.24
2023-03-05T08:46:48.659Z,78.87
2023-03-05T08:49:17.316Z,78.98
2023-03-05T08:51:46.376Z,78.91
2023-03-05T08:54:17.044Z,79.38
2023-03-05T08:56:46.387Z,78.29
2023-03-05T08:59:14.590Z,79.24
2023-03-05T09:01:43.289Z,79.78
2023-03-05T09:04:11.568Z,79.75
2023-03-05T09:06:40.550Z,80.75
2023-03-05T09:09:09.738Z,80.84
2023-03-05T09:11:39.552Z,81.80
2023-03-05T09:14:09.062Z,81.75
2023-03-05T09:16:38.842Z,81.70
2023-03-05T09:19:09.290Z,81.07
2023-03-05T09:21:37.906Z,81.06
2023-03-05T09:24:06.552Z,80.72
2023-03-05T09:26:34.620Z,79.95
2023-03-05T09:29:05.021Z,79.04
2023-03-05T09:31:33.450Z,77.77
2023-03-05T09:34:02.247Z,77.60
2023-03-05T09:36:32.435Z,78.17
2023-03-05T09:39:00.820Z,78.40
2023-03-05T09:41:38.371Z,77.88
2023-03-05T09:44:26.404Z,75.65
2023-03-05T09:46:57.266Z,76.73
2023-03-05T09:49:43.350Z,77.80
2023-03-05T09:52:19.563Z,78.75
2023-03-05T09:54:50.803Z,78.18
2023-03-05T09:57:23.742Z,77.97
2023-03-05T09:59:57.473Z,78.82
2023-03-05T10:02:29.971Z,79.53
2023-03-05T10:05:04.869Z,79.24
2023-03-05T10:07:35.847Z,78.98
2023-03-05T10:10:06.769Z,78.18
2023-03-05T10:12:42.801Z,78.04
2023-03-05T10:15:16.575Z,77.91
2023-03-05T10:17:59.892Z,76.25
2023-03-05T10:20:39.259Z,75.81
2023-03-05T10:23:35.729Z,75.54
2023-03-05T10:26:13.704Z,76.97
2023-03-05T10:28:49.510Z,77.58
2023-03-05T10:31:42.419Z,78.68
2023-03-05T10:34:50.108Z,77.39
2023-03-05T10:37:39.860Z,76.98
2023-03-05T10:40:32.626Z,76.19
2023-03-05T10:43:11.304Z,76.03
2023-03-05T10:45:44.289Z,76.76
2023-03-05T10:48:22.913Z,76.01
2023-03-05T10:50:55.948Z,75.21
2023-03-05T10:53:29.524Z,77.04
2023-03-05T10:55:57.806Z,80.03
2023-03-05T10:58:28.863Z,82.02
2023-03-05T11:01:02.651Z,84.32
2023-03-05T11:03:48.895Z,85.06
2023-03-05T11:06:17.599Z,85.05
2023-03-05T11:08:46.737Z,84.50
2023-03-05T11:11:19.595Z,84.77
2023-03-05T11:13:58.407Z,83.56
2023-03-05T11:16:30.217Z,84.19
2023-03-05T11:19:22.463Z,83.09
2023-03-05T11:22:10.954Z,81.07
2023-03-05T11:24:41.098Z,80.38
2023-03-05T11:27:26.478Z,79.36
2023-03-05T11:29:55.327Z,77.53
2023-03-05T11:32:25.756Z,78.01
2023-03-05T11:34:56.240Z,76.31
2023-03-05T11:37:33.581Z,74.92
2023-03-05T11:40:23.753Z,73.92
2023-03-05T11:43:08.858Z,73.47
2023-03-05T11:45:37.536Z,73.26
2023-03-05T11:48:26.608Z,73.89
2023-03-05T11:51:03.753Z,73.41
2023-03-05T11:53:36.241Z,73.83
2023-03-05T11:56:18.920Z,73.64
2023-03-05T11:59:05.812Z,73.52
2023-03-05T12:01:45.992Z,73.63
2023-03-05T12:04:32.429Z,73.38
2023-03-05T12:07:06.066Z,72.69
2023-03-05T12:09:54.474Z,72.03
2023-03-05T12:12:36.385Z,71.47
2023-03-05T12:15:28.975Z,71.22
2023-03-05T12:18:21.174Z,71.89
2023-03-05T12:21:03.263Z,71.69
2023-03-05T12:23:49.180Z,71.37
2023-03-05T12:26:18.225Z,70.50
2023-03-05T12:29:04.699Z,70.46
2023-03-05T12:31:40.367Z,70.10
2023-03-05T12:34:48.255Z,68.21
2023-03-05T12:37:55.128Z,67.30
2023-03-05T12:40:26.093Z,67.70
2023-03-05T12:42:58.841Z,67.66
2023-03-05T12:45:41.801Z,68.79
2023-03-05T12:48:45.295Z,68.38
2023-03-05T12:51:40.918Z,68.60
2023-03-05T12:54:26.179Z,69.10
2023-03-05T12:56:57.814Z,68.93
2023-03-05T12:59:33.916Z,69.07
2023-03-05T13:02:05.157Z,69.71
2023-03-05T13:04:37.938Z,70.13
2023-03-05T13:07:08.288Z,70.45
2023-03-05T13:09:36.595Z,70.17
2023-03-05T13:12:13.975Z,70.89
2023-03-05T13:14:44.610Z,69.85
2023-03-05T13:17:34.409Z,69.26
2023-03-05T13:20:12.016Z,68.48
2023-03-05T13:22:40.063Z,68.75
2023-03-05T13:25:15.572Z,68.85
2023-03-05T13:27:45.462Z,68.78
2023-03-05T13:30:25.694Z,68.28
2023-03-05T13:32:56.120Z,68.92
2023-03-05T13:35:24.787Z,68.55
2023-03-05T13:37:53.027Z,68.90
2023-03-05T13:40:24.151Z,69.25
2023-03-05T13:42:56.842Z,67.96
2023-03-05T13:45:30.444Z,69.01
2023-03-05T13:48:00.150Z,67.99
2023-03-05T13:50:32.273Z,68.51
2023-03-05T13:53:16.934Z,68.92
2023-03-05T13:55:45.187Z,69.01
2023-03-05T13:58:49.078Z,69.25
2023-03-05T14:01:26.889Z,69.35
2023-03-05T14:04:04.415Z,68.96
2023-03-05T14:06:44.791Z,69.92
2023-03-05T14:09:37.911Z,69.80
2023-03-05T14:12:29.416Z,69.51
2023-03-05T14:15:09.272Z,69.43
2023-03-05T14:17:49.715Z,69.71
2023-03-05T14:20:30.307Z,70.38
2023-03-05T14:23:26.728Z,70.40
2023-03-05T14:26:29.127Z,71.35
2023-03-05T14:29:01.999Z,71.48
2023-03-05T14:31:36.311Z,70.89
2023-03-05T14:34:11.932Z,71.06
2023-03-05T14:36:51.668Z,71.26
2023-03-05T14:39:34.934Z,71.01
2023-03-05T14:42:42.374Z,71.18
2023-03-05T14:45:18.234Z,70.61
2023-03-05T14:48:02.783Z,70.77
2023-03-05T14:50:44.163Z,70.14
2023-03-05T14:53:20.944Z,70.91
2023-03-05T14:56:08.287Z,71.42
2023-03-05T14:58:38.940Z,71.69
2023-03-05T15:01:18.083Z,71.31
2023-03-05T15:03:47.976Z,72.20
2023-03-05T15:06:33.185Z,71.35
2023-03-05T15:09:06.272Z,72.77
2023-03-05T15:11:37.425Z,72.04
2023-03-05T15:14:08.011Z,72.95
2023-03-05T15:16:39.022Z,72.95
2023-03-05T15:19:09.035Z,72.75
2023-03-05T15:21:39.214Z,72.82
2023-03-05T15:24:11.193Z,72.43
2023-03-05T15:26:44.087Z,71.82
2023-03-05T15:29:13.262Z,71.57
2023-03-05T15:31:46.128Z,71.49
2023-03-05T15:34:23.038Z,71.69
2023-03-05T15:41:01.276Z,73.55
2023-03-05T15:43:33.888Z,73.71
2023-03-05T15:46:07.160Z,74.36
2023-03-05T15:48:50.921Z,74.30
2023-03-05T15:51:28.116Z,75.01
2023-03-05T16:54:27.535Z,79.56
2023-03-05T16:56:55.314Z,79.98
2023-03-05T16:59:23.024Z,80.63
2023-03-05T17:01:52.248Z,81.70
2023-03-05T17:04:20.129Z,82.63
2023-03-05T17:06:49.243Z,84.16
2023-03-05T17:09:19.247Z,84.41
2023-03-05T17:11:48.413Z,85.78
2023-03-05T17:14:16.332Z,87.14
2023-03-05T17:16:44.190Z,88.00
2023-03-05T17:19:12.119Z,88.71
2023-03-05T17:21:42.368Z,89.20
2023-03-05T17:24:11.114Z,89.79
2023-03-05T17:26:39.348Z,90.37
2023-03-05T17:29:08.468Z,90.47
2023-03-05T17:31:36.264Z,90.55
2023-03-05T17:34:04.229Z,90.77
2023-03-05T17:36:32.205Z,90.95
2023-03-05T17:39:00.068Z,90.60
2023-03-05T17:41:28.084Z,91.37
2023-03-05T17:43:55.746Z,91.52
2023-03-05T17:46:24.938Z,91.54
2023-03-05T17:48:53.218Z,92.26
2023-03-05T17:51:20.861Z,92.40
2023-03-05T17:53:48.668Z,93.05
2023-03-05T17:56:20.254Z,93.67
2023-03-05T17:58:47.951Z,93.43
2023-03-05T18:01:25.223Z,93.87
2023-03-05T18:03:53.002Z,94.44
2023-03-05T18:06:20.736Z,94.69
2023-03-05T18:08:48.564Z,95.02
2023-03-05T18:11:16.788Z,95.69
2023-03-05T18:13:44.580Z,95.84
2023-03-05T18:16:14.323Z,95.80
2023-03-05T18:18:43.693Z,96.21
2023-03-05T18:21:11.477Z,96.36
2023-03-05T18:23:39.212Z,96.44
2023-03-05T18:26:07.028Z,96.73
2023-03-05T18:28:34.783Z,96.98
2023-03-05T18:31:02.750Z,97.54
2023-03-05T18:33:30.607Z,97.30
2023-03-05T18:35:59.812Z,97.48
2023-03-05T18:38:31.395Z,97.68
2023-03-05T18:41:03.665Z,97.66
2023-03-05T18:43:31.666Z,97.64
2023-03-05T18:45:59.512Z,97.41
2023-03-05T18:48:27.312Z,97.67
2023-03-05T18:50:55.543Z,97.56
2023-03-05T18:53:25.077Z,97.39
2023-03-05T18:55:53.537Z,97.56
2023-03-05T18:58:21.327Z,97.06
2023-03-05T19:00:49.766Z,97.10
2023-03-05T19:03:18.715Z,97.25
2023-03-05T19:05:51.142Z,97.40
2023-03-05T19:08:18.973Z,97.23
2023-03-05T19:10:48.889Z,97.38
2023-03-05T19:13:25.752Z,97.08
2023-03-05T19:15:53.696Z,96.87
2023-03-05T19:18:21.622Z,97.00
2023-03-05T19:20:55.311Z,97.22
2023-03-05T19:23:23.165Z,96.81
2023-03-05T19:25:52.290Z,96.70
2023-03-05T19:28:21.234Z,96.52
2023-03-05T19:30:49.331Z,96.44
2023-03-05T19:33:17.182Z,96.43
2023-03-05T19:35:45.172Z,96.55
2023-03-05T19:38:12.912Z,96.42
2023-03-05T19:40:41.397Z,96.37
2023-03-05T19:43:12.750Z,96.75
2023-03-05T19:45:40.631Z,96.82
2023-03-05T19:48:08.681Z,96.57
2023-03-05T19:50:36.590Z,96.81
2023-03-05T19:53:04.294Z,97.25
2023-03-05T19:55:32.259Z,97.61
2023-03-05T19:58:00.049Z,97.56
2023-03-05T20:00:29.274Z,97.45
2023-03-05T20:02:56.951Z,97.33
2023-03-05T20:05:25.679Z,97.53
2023-03-05T20:07:53.425Z,97.94
2023-03-05T20:10:22.425Z,97.67
2023-03-05T20:12:50.922Z,98.20
2023-03-05T20:15:19.565Z,98.22
2023-03-05T20:17:48.707Z,98.13
2023-03-05T20:20:18.925Z,98.93
2023-03-05T20:22:47.687Z,99.16
2023-03-05T20:25:17.835Z,99.08
2023-03-05T20:27:45.627Z,99.22
2023-03-05T20:30:17.493Z,99.94
2023-03-05T20:32:45.620Z,99.63
2023-03-05T20:35:17.236Z,100.00
2023-03-05T20:38:00.087Z,100.00
2023-03-05T20:40:27.987Z,100.00
2023-03-05T20:42:55.679Z,100.00
2023-03-05T20:45:23.427Z,100.00
2023-03-05T20:47:51.186Z,100.00
2023-03-05T20:50:20.693Z,100.00
2023-03-05T20:52:48.493Z,100.00
2023-03-05T20:55:16.279Z,100.00
2023-03-05T20:57:44.130Z,100.00
2023-03-05T21:00:13.731Z,100.00
2023-03-05T21:02:41.824Z,100.00
2023-03-05T21:05:10.264Z,100.00
2023-03-05T21:07:40.268Z,100.00
2023-03-05T21:10:08.474Z,100.00
2023-03-05T21:12:36.178Z,100.00
2023-03-05T21:15:04.288Z,100.00
2023-03-05T21:17:32.015Z,100.00
2023-03-05T21:19:59.754Z,100.00
2023-03-05T21:22:27.545Z,100.00
2023-03-05T21:25:03.271Z,100.00
2023-03-05T21:27:30.999Z,100.00
2023-03-05T21:29:58.677Z,100.00
2023-03-05T21:32:26.584Z,100.00
2023-03-05T21:34:54.568Z,100.00
2023-03-05T21:37:22.297Z,100.00
2023-03-05T21:39:50.024Z,100.00
2023-03-05T21:42:19.153Z,100.00
2023-03-05T21:44:46.895Z,100.00
2023-03-05T21:47:14.867Z,100.00
2023-03-05T21:49:42.676Z,100.00
2023-03-05T21:52:12.678Z,100.00
2023-03-05T21:54:40.427Z,100.00
2023-03-05T21:57:09.718Z,100.00
2023-03-05T21:59:40.560Z,100.00
2023-03-05T22:02:11.252Z,100.00
2023-03-05T22:04:39.139Z,100.00
2023-03-05T22:07:06.962Z,100.00
2023-03-05T22:09:34.746Z,100.00
2023-03-05T22:12:04.644Z,100.00
2023-03-05T22:14:32.453Z,100.00
2023-03-05T22:17:02.199Z,100.00
2023-03-05T22:19:30.476Z,100.00
2023-03-05T22:21:58.755Z,100.00
2023-03-05T22:24:26.526Z,100.00
2023-03-05T22:26:54.422Z,100.00
2023-03-05T22:29:22.194Z,100.00
2023-03-05T22:31:49.913Z,100.00
2023-03-05T22:34:19.014Z,100.00
2023-03-05T22:36:46.725Z,100.00
2023-03-05T22:39:14.539Z,100.00
2023-03-05T22:41:43.082Z,100.00
2023-03-05T22:44:10.787Z,100.00
2023-03-05T22:46:38.526Z,100.00
2023-03-05T22:49:06.352Z,100.00
2023-03-05T22:51:35.473Z,100.00
2023-03-05T22:54:03.446Z,100.00
2023-03-05T22:56:31.232Z,100.00
2023-03-05T22:58:59.142Z,100.00
2023-03-05T23:01:27.641Z,100.00
2023-03-05T23:04:03.763Z,100.00
2023-03-05T23:06:31.553Z,100.00
2023-03-05T23:09:00.711Z,100.00
2023-03-05T23:11:28.499Z,100.00
2023-03-05T23:13:56.361Z,100.00
2023-03-05T23:16:24.064Z,100.00
2023-03-05T23:18:51.783Z,100.00
2023-03-05T23:21:20.000Z,100.00
2023-03-05T23:23:47.725Z,100.00
2023-03-05T23:26:16.798Z,100.00
2023-03-05T23:28:44.652Z,100.00
2023-03-05T23:31:12.479Z,100.00
2023-03-05T23:33:40.310Z,100.00
2023-03-05T23:36:09.637Z,100.00
2023-03-05T23:38:37.552Z,100.00
2023-03-05T23:41:09.567Z,100.00
2023-03-05T23:43:38.756Z,100.00
2023-03-05T23:46:11.508Z,100.00
2023-03-05T23:48:39.258Z,100.00
2023-03-05T23:51:09.840Z,100.00
2023-03-05T23:53:37.924Z,100.00
2023-03-05T23:56:10.898Z,100.00
2023-03-05T23:58:40.300Z,100.00
